sensor_id;sensor_type;location;lat;lon;timestamp;temperature;humidity
20081;DHT22;10200;49.232;9.222;2022-09-16T00:00:20;16.00;99.90
20081;DHT22;10200;49.232;9.222;2022-09-16T00:02:46;16.00;99.90
20081;DHT22;10200;49.232;9.222;2022-09-16T00:05:12;16.00;99.90
20081;DHT22;10200;49.232;9.222;2022-09-16T00:07:38;16.00;99.90
20081;DHT22;10200;49.232;9.222;2022-09-16T00:10:04;16.10;99.90
20081;DHT22;10200;49.232;9.222;2022-09-16T00:12:30;16.10;99.90
20081;DHT22;10200;49.232;9.222;2022-09-16T00:14:56;16.10;99.90
20081;DHT22;10200;49.232;9.222;2022-09-16T00:17:22;16.10;99.90
20081;DHT22;10200;49.232;9.222;2022-09-16T00:19:48;16.10;99.90
20081;DHT22;10200;49.232;9.222;2022-09-16T00:22:14;16.10;99.90
20081;DHT22;10200;49.232;9.222;2022-09-16T00:24:40;16.20;99.90
20081;DHT22;10200;49.232;9.222;2022-09-16T00:27:06;16.20;99.90
20081;DHT22;10200;49.232;9.222;2022-09-16T00:29:31;16.20;99.90
20081;DHT22;10200;49.232;9.222;2022-09-16T00:31:57;16.10;99.90
20081;DHT22;10200;49.232;9.222;2022-09-16T00:34:22;16.10;99.90
20081;DHT22;10200;49.232;9.222;2022-09-16T00:36:48;16.10;99.90
20081;DHT22;10200;49.232;9.222;2022-09-16T00:39:13;16.10;99.90
20081;DHT22;10200;49.232;9.222;2022-09-16T00:41:39;16.10;99.90
20081;DHT22;10200;49.232;9.222;2022-09-16T00:46:52;16.10;99.90
20081;DHT22;10200;49.232;9.222;2022-09-16T00:49:24;16.10;99.90
20081;DHT22;10200;49.232;9.222;2022-09-16T00:51:55;16.10;99.90
20081;DHT22;10200;49.232;9.222;2022-09-16T00:54:22;16.10;99.90
20081;DHT22;10200;49.232;9.222;2022-09-16T00:56:51;16.10;99.90
20081;DHT22;10200;49.232;9.222;2022-09-16T00:59:21;16.00;99.90
20081;DHT22;10200;49.232;9.222;2022-09-16T01:01:49;16.00;99.90
20081;DHT22;10200;49.232;9.222;2022-09-16T01:04:19;16.00;99.90
20081;DHT22;10200;49.232;9.222;2022-09-16T01:06:47;16.10;99.90
20081;DHT22;10200;49.232;9.222;2022-09-16T01:09:14;16.10;99.90
20081;DHT22;10200;49.232;9.222;2022-09-16T01:11:40;16.10;99.90
20081;DHT22;10200;49.232;9.222;2022-09-16T01:14:06;16.10;99.90
20081;DHT22;10200;49.232;9.222;2022-09-16T01:17:01;16.10;99.90
20081;DHT22;10200;49.232;9.222;2022-09-16T01:19:41;16.10;99.90
20081;DHT22;10200;49.232;9.222;2022-09-16T01:28:14;16.20;99.90
20081;DHT22;10200;49.232;9.222;2022-09-16T01:33:26;16.20;99.90
20081;DHT22;10200;49.232;9.222;2022-09-16T01:38:41;16.30;99.90
20081;DHT22;10200;49.232;9.222;2022-09-16T01:43:43;16.30;99.90
20081;DHT22;10200;49.232;9.222;2022-09-16T01:52:54;16.30;99.90
20081;DHT22;10200;49.232;9.222;2022-09-16T01:54:57;16.30;99.90
20081;DHT22;10200;49.232;9.222;2022-09-16T02:00:32;16.30;99.90
20081;DHT22;10200;49.232;9.222;2022-09-16T02:03:10;16.30;99.90
20081;DHT22;10200;49.232;9.222;2022-09-16T02:06:16;16.40;99.90
20081;DHT22;10200;49.232;9.222;2022-09-16T02:09:30;16.40;99.90
20081;DHT22;10200;49.232;9.222;2022-09-16T02:11:37;16.30;99.90
20081;DHT22;10200;49.232;9.222;2022-09-16T02:14:21;16.30;99.90
20081;DHT22;10200;49.232;9.222;2022-09-16T02:17:08;16.30;99.90
20081;DHT22;10200;49.232;9.222;2022-09-16T02:20:03;16.20;99.90
20081;DHT22;10200;49.232;9.222;2022-09-16T02:22:59;16.20;99.90
20081;DHT22;10200;49.232;9.222;2022-09-16T02:25:27;16.20;99.90
20081;DHT22;10200;49.232;9.222;2022-09-16T02:27:56;16.20;99.90
20081;DHT22;10200;49.232;9.222;2022-09-16T02:30:23;16.20;99.90
20081;DHT22;10200;49.232;9.222;2022-09-16T02:32:57;16.20;99.90
20081;DHT22;10200;49.232;9.222;2022-09-16T02:35:24;16.20;99.90
20081;DHT22;10200;49.232;9.222;2022-09-16T02:37:56;16.20;99.90
20081;DHT22;10200;49.232;9.222;2022-09-16T02:42:51;16.10;99.90
20081;DHT22;10200;49.232;9.222;2022-09-16T02:45:18;16.10;99.90
20081;DHT22;10200;49.232;9.222;2022-09-16T02:50:42;16.00;99.90
20081;DHT22;10200;49.232;9.222;2022-09-16T02:56:01;16.00;99.90
20081;DHT22;10200;49.232;9.222;2022-09-16T02:58:28;15.90;99.90
20081;DHT22;10200;49.232;9.222;2022-09-16T03:00:54;15.90;99.90
20081;DHT22;10200;49.232;9.222;2022-09-16T03:03:22;15.90;99.90
20081;DHT22;10200;49.232;9.222;2022-09-16T03:08:33;16.00;99.90
20081;DHT22;10200;49.232;9.222;2022-09-16T03:11:23;16.00;99.90
20081;DHT22;10200;49.232;9.222;2022-09-16T03:27:42;16.00;99.90
20081;DHT22;10200;49.232;9.222;2022-09-16T03:30:10;16.00;99.90
20081;DHT22;10200;49.232;9.222;2022-09-16T03:32:47;16.00;99.90
20081;DHT22;10200;49.232;9.222;2022-09-16T03:35:30;16.10;99.90
20081;DHT22;10200;49.232;9.222;2022-09-16T03:37:58;16.10;99.90
20081;DHT22;10200;49.232;9.222;2022-09-16T03:40:25;16.00;99.90
20081;DHT22;10200;49.232;9.222;2022-09-16T03:42:53;16.00;99.90
20081;DHT22;10200;49.232;9.222;2022-09-16T03:45:20;16.00;99.90
20081;DHT22;10200;49.232;9.222;2022-09-16T03:47:48;16.00;99.90
20081;DHT22;10200;49.232;9.222;2022-09-16T03:50:14;16.00;99.90
20081;DHT22;10200;49.232;9.222;2022-09-16T03:52:40;16.00;99.90
20081;DHT22;10200;49.232;9.222;2022-09-16T03:55:06;16.00;99.90
20081;DHT22;10200;49.232;9.222;2022-09-16T03:57:33;16.00;99.90
20081;DHT22;10200;49.232;9.222;2022-09-16T03:59:59;16.00;99.90
20081;DHT22;10200;49.232;9.222;2022-09-16T04:02:24;16.00;99.90
20081;DHT22;10200;49.232;9.222;2022-09-16T04:04:50;16.10;99.90
20081;DHT22;10200;49.232;9.222;2022-09-16T04:07:16;16.00;99.90
20081;DHT22;10200;49.232;9.222;2022-09-16T04:09:42;16.00;99.90
20081;DHT22;10200;49.232;9.222;2022-09-16T04:12:07;16.00;99.90
20081;DHT22;10200;49.232;9.222;2022-09-16T04:14:34;16.00;99.90
20081;DHT22;10200;49.232;9.222;2022-09-16T04:16:59;15.90;99.90
20081;DHT22;10200;49.232;9.222;2022-09-16T04:19:25;15.90;99.90
20081;DHT22;10200;49.232;9.222;2022-09-16T04:21:51;15.90;99.90
20081;DHT22;10200;49.232;9.222;2022-09-16T04:24:16;15.80;99.90
20081;DHT22;10200;49.232;9.222;2022-09-16T04:26:42;15.80;99.90
20081;DHT22;10200;49.232;9.222;2022-09-16T04:29:08;15.80;99.90
20081;DHT22;10200;49.232;9.222;2022-09-16T04:31:34;15.80;99.90
20081;DHT22;10200;49.232;9.222;2022-09-16T04:34:01;15.90;99.90
20081;DHT22;10200;49.232;9.222;2022-09-16T04:36:26;15.90;99.90
20081;DHT22;10200;49.232;9.222;2022-09-16T04:38:52;15.80;99.90
20081;DHT22;10200;49.232;9.222;2022-09-16T04:41:20;15.80;99.90
20081;DHT22;10200;49.232;9.222;2022-09-16T04:43:50;15.90;99.90
20081;DHT22;10200;49.232;9.222;2022-09-16T04:46:17;15.90;99.90
20081;DHT22;10200;49.232;9.222;2022-09-16T04:48:45;15.90;99.90
20081;DHT22;10200;49.232;9.222;2022-09-16T04:51:11;15.90;99.90
20081;DHT22;10200;49.232;9.222;2022-09-16T04:53:38;15.90;99.90
20081;DHT22;10200;49.232;9.222;2022-09-16T04:56:14;15.90;99.90
20081;DHT22;10200;49.232;9.222;2022-09-16T04:58:45;15.90;99.90
20081;DHT22;10200;49.232;9.222;2022-09-16T05:01:14;15.90;99.90
20081;DHT22;10200;49.232;9.222;2022-09-16T05:03:45;16.00;99.90
20081;DHT22;10200;49.232;9.222;2022-09-16T05:06:14;15.90;99.90
20081;DHT22;10200;49.232;9.222;2022-09-16T05:08:40;16.00;99.90
20081;DHT22;10200;49.232;9.222;2022-09-16T05:11:16;15.90;99.90
20081;DHT22;10200;49.232;9.222;2022-09-16T05:13:42;15.90;99.90
20081;DHT22;10200;49.232;9.222;2022-09-16T05:16:19;15.90;99.90
20081;DHT22;10200;49.232;9.222;2022-09-16T05:18:46;15.90;99.90
20081;DHT22;10200;49.232;9.222;2022-09-16T05:21:14;15.80;99.90
20081;DHT22;10200;49.232;9.222;2022-09-16T05:23:40;15.80;99.90
20081;DHT22;10200;49.232;9.222;2022-09-16T05:26:09;15.70;99.90
20081;DHT22;10200;49.232;9.222;2022-09-16T05:28:35;15.80;99.90
20081;DHT22;10200;49.232;9.222;2022-09-16T05:31:18;15.80;99.90
20081;DHT22;10200;49.232;9.222;2022-09-16T05:33:46;15.90;99.90
20081;DHT22;10200;49.232;9.222;2022-09-16T05:36:16;15.90;99.90
20081;DHT22;10200;49.232;9.222;2022-09-16T05:38:42;15.90;99.90
20081;DHT22;10200;49.232;9.222;2022-09-16T05:41:08;15.90;99.90
20081;DHT22;10200;49.232;9.222;2022-09-16T05:43:34;15.90;99.90
20081;DHT22;10200;49.232;9.222;2022-09-16T05:46:00;15.80;99.90
20081;DHT22;10200;49.232;9.222;2022-09-16T05:48:26;15.80;99.90
20081;DHT22;10200;49.232;9.222;2022-09-16T05:50:56;15.80;99.90
20081;DHT22;10200;49.232;9.222;2022-09-16T05:53:23;15.80;99.90
20081;DHT22;10200;49.232;9.222;2022-09-16T05:55:59;15.80;99.90
20081;DHT22;10200;49.232;9.222;2022-09-16T05:58:26;15.80;99.90
20081;DHT22;10200;49.232;9.222;2022-09-16T06:01:00;15.90;99.90
20081;DHT22;10200;49.232;9.222;2022-09-16T06:03:26;15.80;99.90
20081;DHT22;10200;49.232;9.222;2022-09-16T06:05:59;15.80;99.90
20081;DHT22;10200;49.232;9.222;2022-09-16T06:08:25;15.80;99.90
20081;DHT22;10200;49.232;9.222;2022-09-16T06:10:51;15.70;99.90
20081;DHT22;10200;49.232;9.222;2022-09-16T06:13:16;15.80;99.90
20081;DHT22;10200;49.232;9.222;2022-09-16T06:15:51;15.70;99.90
20081;DHT22;10200;49.232;9.222;2022-09-16T06:18:19;15.70;99.90
20081;DHT22;10200;49.232;9.222;2022-09-16T06:20:45;15.80;99.90
20081;DHT22;10200;49.232;9.222;2022-09-16T06:23:12;15.80;99.90
20081;DHT22;10200;49.232;9.222;2022-09-16T06:25:37;15.80;99.90
20081;DHT22;10200;49.232;9.222;2022-09-16T06:28:03;15.80;99.90
20081;DHT22;10200;49.232;9.222;2022-09-16T06:30:29;15.90;99.90
20081;DHT22;10200;49.232;9.222;2022-09-16T06:32:55;15.90;99.90
20081;DHT22;10200;49.232;9.222;2022-09-16T06:35:20;15.90;99.90
20081;DHT22;10200;49.232;9.222;2022-09-16T06:37:46;15.80;99.90
20081;DHT22;10200;49.232;9.222;2022-09-16T06:40:11;15.80;99.90
20081;DHT22;10200;49.232;9.222;2022-09-16T06:42:37;15.70;99.90
20081;DHT22;10200;49.232;9.222;2022-09-16T06:45:04;15.80;99.90
20081;DHT22;10200;49.232;9.222;2022-09-16T06:47:30;15.80;99.90
20081;DHT22;10200;49.232;9.222;2022-09-16T06:49:59;15.80;99.90
20081;DHT22;10200;49.232;9.222;2022-09-16T06:52:25;15.90;99.90
20081;DHT22;10200;49.232;9.222;2022-09-16T06:54:52;15.80;99.90
20081;DHT22;10200;49.232;9.222;2022-09-16T06:57:17;15.80;99.90
20081;DHT22;10200;49.232;9.222;2022-09-16T06:59:45;15.80;99.90
20081;DHT22;10200;49.232;9.222;2022-09-16T07:02:10;15.80;99.90
20081;DHT22;10200;49.232;9.222;2022-09-16T07:04:36;15.70;99.90
20081;DHT22;10200;49.232;9.222;2022-09-16T07:07:02;15.70;99.90
20081;DHT22;10200;49.232;9.222;2022-09-16T07:09:28;15.80;99.90
20081;DHT22;10200;49.232;9.222;2022-09-16T07:11:54;15.80;99.90
20081;DHT22;10200;49.232;9.222;2022-09-16T07:14:21;15.80;99.90
20081;DHT22;10200;49.232;9.222;2022-09-16T07:16:47;15.80;99.90
20081;DHT22;10200;49.232;9.222;2022-09-16T07:19:13;15.70;99.90
20081;DHT22;10200;49.232;9.222;2022-09-16T07:21:38;15.70;99.90
20081;DHT22;10200;49.232;9.222;2022-09-16T07:24:05;15.70;99.90
20081;DHT22;10200;49.232;9.222;2022-09-16T07:26:32;15.80;99.90
20081;DHT22;10200;49.232;9.222;2022-09-16T07:29:00;15.80;99.90
20081;DHT22;10200;49.232;9.222;2022-09-16T07:31:29;15.80;99.90
20081;DHT22;10200;49.232;9.222;2022-09-16T07:33:56;15.90;99.90
20081;DHT22;10200;49.232;9.222;2022-09-16T07:36:25;16.00;99.90
20081;DHT22;10200;49.232;9.222;2022-09-16T07:38:52;15.90;99.90
20081;DHT22;10200;49.232;9.222;2022-09-16T07:41:23;16.00;99.90
20081;DHT22;10200;49.232;9.222;2022-09-16T07:43:50;16.10;99.90
20081;DHT22;10200;49.232;9.222;2022-09-16T07:46:17;16.20;99.90
20081;DHT22;10200;49.232;9.222;2022-09-16T07:48:45;16.20;99.90
20081;DHT22;10200;49.232;9.222;2022-09-16T07:51:14;16.30;99.90
20081;DHT22;10200;49.232;9.222;2022-09-16T07:53:40;16.30;99.90
20081;DHT22;10200;49.232;9.222;2022-09-16T07:56:18;16.40;99.90
20081;DHT22;10200;49.232;9.222;2022-09-16T07:58:44;16.40;99.90
20081;DHT22;10200;49.232;9.222;2022-09-16T08:01:11;16.30;99.90
20081;DHT22;10200;49.232;9.222;2022-09-16T08:03:39;16.30;99.90
20081;DHT22;10200;49.232;9.222;2022-09-16T08:06:07;16.20;99.90
20081;DHT22;10200;49.232;9.222;2022-09-16T08:08:34;16.20;99.90
20081;DHT22;10200;49.232;9.222;2022-09-16T08:11:00;16.20;99.90
20081;DHT22;10200;49.232;9.222;2022-09-16T08:13:28;16.20;99.90
20081;DHT22;10200;49.232;9.222;2022-09-16T08:15:54;16.20;99.90
20081;DHT22;10200;49.232;9.222;2022-09-16T08:18:20;16.20;99.90
20081;DHT22;10200;49.232;9.222;2022-09-16T08:20:46;16.20;99.90
20081;DHT22;10200;49.232;9.222;2022-09-16T08:23:12;16.10;99.90
20081;DHT22;10200;49.232;9.222;2022-09-16T08:25:39;16.10;99.90
20081;DHT22;10200;49.232;9.222;2022-09-16T08:28:11;16.10;99.90
20081;DHT22;10200;49.232;9.222;2022-09-16T08:30:37;16.10;99.90
20081;DHT22;10200;49.232;9.222;2022-09-16T08:33:02;16.20;99.90
20081;DHT22;10200;49.232;9.222;2022-09-16T08:35:28;16.10;99.90
20081;DHT22;10200;49.232;9.222;2022-09-16T08:37:53;16.10;99.90
20081;DHT22;10200;49.232;9.222;2022-09-16T08:40:22;16.20;99.90
20081;DHT22;10200;49.232;9.222;2022-09-16T08:42:56;16.20;99.90
20081;DHT22;10200;49.232;9.222;2022-09-16T08:49:14;16.30;99.90
20081;DHT22;10200;49.232;9.222;2022-09-16T08:51:19;16.40;99.90
20081;DHT22;10200;49.232;9.222;2022-09-16T08:54:00;16.40;99.90
20081;DHT22;10200;49.232;9.222;2022-09-16T08:56:28;16.30;99.90
20081;DHT22;10200;49.232;9.222;2022-09-16T08:58:59;16.30;99.90
20081;DHT22;10200;49.232;9.222;2022-09-16T09:03:59;16.20;99.90
20081;DHT22;10200;49.232;9.222;2022-09-16T09:12:25;16.10;99.90
20081;DHT22;10200;49.232;9.222;2022-09-16T09:15:00;16.00;99.90
20081;DHT22;10200;49.232;9.222;2022-09-16T09:40:18;15.90;99.90
20081;DHT22;10200;49.232;9.222;2022-09-16T09:45:41;15.90;99.90
20081;DHT22;10200;49.232;9.222;2022-09-16T09:50:47;15.80;99.90
20081;DHT22;10200;49.232;9.222;2022-09-16T09:53:22;15.80;99.90
20081;DHT22;10200;49.232;9.222;2022-09-16T09:55:53;15.80;99.90
20081;DHT22;10200;49.232;9.222;2022-09-16T10:01:18;15.70;99.90
20081;DHT22;10200;49.232;9.222;2022-09-16T10:03:44;15.70;99.90
20081;DHT22;10200;49.232;9.222;2022-09-16T10:06:10;15.80;99.90
20081;DHT22;10200;49.232;9.222;2022-09-16T10:08:48;15.80;99.90
20081;DHT22;10200;49.232;9.222;2022-09-16T10:11:30;15.90;99.90
20081;DHT22;10200;49.232;9.222;2022-09-16T10:13:58;15.90;99.90
20081;DHT22;10200;49.232;9.222;2022-09-16T10:16:35;15.90;99.90
20081;DHT22;10200;49.232;9.222;2022-09-16T10:19:21;16.00;99.90
20081;DHT22;10200;49.232;9.222;2022-09-16T10:21:55;16.00;99.90
20081;DHT22;10200;49.232;9.222;2022-09-16T10:27:00;16.00;99.90
20081;DHT22;10200;49.232;9.222;2022-09-16T10:29:26;16.00;99.90
20081;DHT22;10200;49.232;9.222;2022-09-16T10:31:53;16.00;99.90
20081;DHT22;10200;49.232;9.222;2022-09-16T10:34:30;16.00;99.90
20081;DHT22;10200;49.232;9.222;2022-09-16T10:37:17;16.00;99.90
20081;DHT22;10200;49.232;9.222;2022-09-16T10:39:52;16.10;99.90
20081;DHT22;10200;49.232;9.222;2022-09-16T10:42:21;16.10;99.90
20081;DHT22;10200;49.232;9.222;2022-09-16T10:44:48;16.10;99.90
20081;DHT22;10200;49.232;9.222;2022-09-16T10:47:30;16.20;99.90
20081;DHT22;10200;49.232;9.222;2022-09-16T10:50:02;16.30;99.90
20081;DHT22;10200;49.232;9.222;2022-09-16T10:52:31;16.40;99.90
20081;DHT22;10200;49.232;9.222;2022-09-16T10:55:21;16.50;99.90
20081;DHT22;10200;49.232;9.222;2022-09-16T10:57:47;16.50;99.90
20081;DHT22;10200;49.232;9.222;2022-09-16T11:00:17;16.60;99.90
20081;DHT22;10200;49.232;9.222;2022-09-16T11:03:19;16.60;99.90
20081;DHT22;10200;49.232;9.222;2022-09-16T11:06:17;16.60;99.90
20081;DHT22;10200;49.232;9.222;2022-09-16T11:09:13;16.60;99.90
20081;DHT22;10200;49.232;9.222;2022-09-16T11:17:09;16.60;99.90
20081;DHT22;10200;49.232;9.222;2022-09-16T11:19:48;16.70;99.90
20081;DHT22;10200;49.232;9.222;2022-09-16T11:27:46;16.90;99.90
20081;DHT22;10200;49.232;9.222;2022-09-16T11:30:13;16.80;99.90
20081;DHT22;10200;49.232;9.222;2022-09-16T11:32:51;16.80;99.90
20081;DHT22;10200;49.232;9.222;2022-09-16T11:38:17;16.80;99.90
20081;DHT22;10200;49.232;9.222;2022-09-16T11:40:59;16.80;99.90
20081;DHT22;10200;49.232;9.222;2022-09-16T11:57:12;17.30;99.90
20081;DHT22;10200;49.232;9.222;2022-09-16T11:59:54;17.60;99.90
20081;DHT22;10200;49.232;9.222;2022-09-16T12:02:28;17.70;99.90
20081;DHT22;10200;49.232;9.222;2022-09-16T12:05:39;17.70;99.90
20081;DHT22;10200;49.232;9.222;2022-09-16T12:08:19;17.70;99.90
20081;DHT22;10200;49.232;9.222;2022-09-16T12:11:16;17.80;99.90
20081;DHT22;10200;49.232;9.222;2022-09-16T12:13:56;17.80;99.90
20081;DHT22;10200;49.232;9.222;2022-09-16T12:16:41;17.80;99.90
20081;DHT22;10200;49.232;9.222;2022-09-16T12:19:21;17.70;99.90
20081;DHT22;10200;49.232;9.222;2022-09-16T12:22:28;17.70;99.90
20081;DHT22;10200;49.232;9.222;2022-09-16T12:24:57;17.70;99.90
20081;DHT22;10200;49.232;9.222;2022-09-16T12:27:46;17.60;99.90
20081;DHT22;10200;49.232;9.222;2022-09-16T12:30:19;17.70;99.90
20081;DHT22;10200;49.232;9.222;2022-09-16T12:35:47;17.90;99.40
20081;DHT22;10200;49.232;9.222;2022-09-16T12:38:16;17.90;97.10
20081;DHT22;10200;49.232;9.222;2022-09-16T12:41:03;17.80;97.30
20081;DHT22;10200;49.232;9.222;2022-09-16T12:59:56;18.40;92.70
20081;DHT22;10200;49.232;9.222;2022-09-16T13:02:40;18.50;91.60
20081;DHT22;10200;49.232;9.222;2022-09-16T13:05:17;18.50;90.10
20081;DHT22;10200;49.232;9.222;2022-09-16T13:07:52;18.60;89.40
20081;DHT22;10200;49.232;9.222;2022-09-16T13:10:36;18.60;86.80
20081;DHT22;10200;49.232;9.222;2022-09-16T13:13:03;18.60;87.00
20081;DHT22;10200;49.232;9.222;2022-09-16T13:15:34;18.80;88.00
20081;DHT22;10200;49.232;9.222;2022-09-16T13:20:52;18.90;85.10
20081;DHT22;10200;49.232;9.222;2022-09-16T13:23:23;18.90;84.00
20081;DHT22;10200;49.232;9.222;2022-09-16T13:26:06;19.00;83.80
20081;DHT22;10200;49.232;9.222;2022-09-16T13:33:46;19.10;81.40
20081;DHT22;10200;49.232;9.222;2022-09-16T13:38:41;18.90;82.20
20081;DHT22;10200;49.232;9.222;2022-09-16T13:41:10;18.80;83.10
20081;DHT22;10200;49.232;9.222;2022-09-16T13:46:24;18.50;80.00
20081;DHT22;10200;49.232;9.222;2022-09-16T13:51:30;18.40;81.90
20081;DHT22;10200;49.232;9.222;2022-09-16T13:53:57;18.30;81.60
20081;DHT22;10200;49.232;9.222;2022-09-16T14:01:42;18.30;78.20
20081;DHT22;10200;49.232;9.222;2022-09-16T14:07:28;18.40;76.70
20081;DHT22;10200;49.232;9.222;2022-09-16T14:10:22;18.60;76.40
20081;DHT22;10200;49.232;9.222;2022-09-16T14:12:56;18.50;73.30
20081;DHT22;10200;49.232;9.222;2022-09-16T14:15:24;18.50;71.10
20081;DHT22;10200;49.232;9.222;2022-09-16T14:17:54;18.50;70.20
20081;DHT22;10200;49.232;9.222;2022-09-16T14:20:23;18.60;70.20
20081;DHT22;10200;49.232;9.222;2022-09-16T14:23:04;18.80;68.90
20081;DHT22;10200;49.232;9.222;2022-09-16T14:25:35;18.90;66.70
20081;DHT22;10200;49.232;9.222;2022-09-16T14:28:20;18.90;65.40
20081;DHT22;10200;49.232;9.222;2022-09-16T14:33:16;18.90;65.60
20081;DHT22;10200;49.232;9.222;2022-09-16T14:35:46;19.00;66.50
20081;DHT22;10200;49.232;9.222;2022-09-16T14:38:15;19.00;65.80
20081;DHT22;10200;49.232;9.222;2022-09-16T14:40:41;19.10;67.30
20081;DHT22;10200;49.232;9.222;2022-09-16T14:43:15;19.20;68.00
20081;DHT22;10200;49.232;9.222;2022-09-16T14:45:46;19.30;67.80
20081;DHT22;10200;49.232;9.222;2022-09-16T14:48:13;19.40;67.30
20081;DHT22;10200;49.232;9.222;2022-09-16T14:50:42;19.60;66.90
20081;DHT22;10200;49.232;9.222;2022-09-16T14:53:30;19.60;66.70
20081;DHT22;10200;49.232;9.222;2022-09-16T14:55:57;19.60;65.90
20081;DHT22;10200;49.232;9.222;2022-09-16T14:58:25;19.60;65.50
20081;DHT22;10200;49.232;9.222;2022-09-16T15:03:30;19.40;66.50
20081;DHT22;10200;49.232;9.222;2022-09-16T15:05:59;19.20;66.20
20081;DHT22;10200;49.232;9.222;2022-09-16T15:08:58;19.10;67.30
20081;DHT22;10200;49.232;9.222;2022-09-16T15:11:34;19.00;68.10
20081;DHT22;10200;49.232;9.222;2022-09-16T15:14:04;18.90;68.50
20081;DHT22;10200;49.232;9.222;2022-09-16T15:16:30;18.80;70.90
20081;DHT22;10200;49.232;9.222;2022-09-16T15:19:02;18.60;72.20
20081;DHT22;10200;49.232;9.222;2022-09-16T15:21:31;18.30;73.00
20081;DHT22;10200;49.232;9.222;2022-09-16T15:24:01;18.00;73.50
20081;DHT22;10200;49.232;9.222;2022-09-16T15:26:40;17.80;74.40
20081;DHT22;10200;49.232;9.222;2022-09-16T15:31:41;17.50;77.30
20081;DHT22;10200;49.232;9.222;2022-09-16T15:36:51;17.40;78.90
20081;DHT22;10200;49.232;9.222;2022-09-16T15:42:01;17.40;79.10
20081;DHT22;10200;49.232;9.222;2022-09-16T15:44:27;17.40;79.60
20081;DHT22;10200;49.232;9.222;2022-09-16T15:46:53;17.40;79.80
20081;DHT22;10200;49.232;9.222;2022-09-16T15:49:18;17.40;79.60
20081;DHT22;10200;49.232;9.222;2022-09-16T15:56:59;17.20;79.30
20081;DHT22;10200;49.232;9.222;2022-09-16T15:59:44;17.30;78.80
20081;DHT22;10200;49.232;9.222;2022-09-16T16:02:37;17.30;78.60
20081;DHT22;10200;49.232;9.222;2022-09-16T16:05:20;17.30;78.70
20081;DHT22;10200;49.232;9.222;2022-09-16T16:07:56;17.20;78.60
20081;DHT22;10200;49.232;9.222;2022-09-16T16:10:27;17.20;78.40
20081;DHT22;10200;49.232;9.222;2022-09-16T16:12:56;17.20;78.30
20081;DHT22;10200;49.232;9.222;2022-09-16T16:17:57;17.20;79.20
20081;DHT22;10200;49.232;9.222;2022-09-16T16:20:23;17.10;79.10
20081;DHT22;10200;49.232;9.222;2022-09-16T16:22:49;17.20;79.80
20081;DHT22;10200;49.232;9.222;2022-09-16T16:25:15;17.10;79.70
20081;DHT22;10200;49.232;9.222;2022-09-16T16:27:41;17.10;79.80
20081;DHT22;10200;49.232;9.222;2022-09-16T16:30:07;17.10;80.20
20081;DHT22;10200;49.232;9.222;2022-09-16T16:32:33;17.00;80.10
20081;DHT22;10200;49.232;9.222;2022-09-16T16:38:21;16.90;79.40
20081;DHT22;10200;49.232;9.222;2022-09-16T16:40:50;16.80;78.50
20081;DHT22;10200;49.232;9.222;2022-09-16T16:43:16;16.70;78.30
20081;DHT22;10200;49.232;9.222;2022-09-16T16:45:41;16.60;78.50
20081;DHT22;10200;49.232;9.222;2022-09-16T16:48:07;16.60;78.60
20081;DHT22;10200;49.232;9.222;2022-09-16T16:50:32;16.60;79.60
20081;DHT22;10200;49.232;9.222;2022-09-16T16:52:58;16.50;81.40
20081;DHT22;10200;49.232;9.222;2022-09-16T16:55:23;16.50;82.40
20081;DHT22;10200;49.232;9.222;2022-09-16T16:57:49;16.50;83.30
20081;DHT22;10200;49.232;9.222;2022-09-16T17:00:15;16.40;83.70
20081;DHT22;10200;49.232;9.222;2022-09-16T17:02:41;16.30;83.70
20081;DHT22;10200;49.232;9.222;2022-09-16T17:05:07;16.30;84.20
20081;DHT22;10200;49.232;9.222;2022-09-16T17:07:33;16.20;84.60
20081;DHT22;10200;49.232;9.222;2022-09-16T17:09:58;16.20;85.00
20081;DHT22;10200;49.232;9.222;2022-09-16T17:12:25;16.20;85.10
20081;DHT22;10200;49.232;9.222;2022-09-16T17:14:50;16.10;85.60
20081;DHT22;10200;49.232;9.222;2022-09-16T17:17:16;16.10;85.80
20081;DHT22;10200;49.232;9.222;2022-09-16T17:19:41;16.10;86.30
20081;DHT22;10200;49.232;9.222;2022-09-16T17:22:07;16.10;86.60
20081;DHT22;10200;49.232;9.222;2022-09-16T17:24:32;16.10;86.90
20081;DHT22;10200;49.232;9.222;2022-09-16T17:26:58;16.00;86.70
20081;DHT22;10200;49.232;9.222;2022-09-16T17:29:24;16.00;87.20
20081;DHT22;10200;49.232;9.222;2022-09-16T17:31:50;16.00;87.30
20081;DHT22;10200;49.232;9.222;2022-09-16T17:34:15;16.00;87.80
20081;DHT22;10200;49.232;9.222;2022-09-16T17:36:43;15.90;87.90
20081;DHT22;10200;49.232;9.222;2022-09-16T17:39:12;15.90;88.30
20081;DHT22;10200;49.232;9.222;2022-09-16T17:41:39;15.90;88.20
20081;DHT22;10200;49.232;9.222;2022-09-16T17:44:07;16.00;88.20
20081;DHT22;10200;49.232;9.222;2022-09-16T17:46:34;15.90;88.90
20081;DHT22;10200;49.232;9.222;2022-09-16T17:49:06;15.90;88.90
20081;DHT22;10200;49.232;9.222;2022-09-16T17:51:33;16.00;89.70
20081;DHT22;10200;49.232;9.222;2022-09-16T17:53:59;15.90;89.60
20081;DHT22;10200;49.232;9.222;2022-09-16T17:56:25;16.00;89.90
20081;DHT22;10200;49.232;9.222;2022-09-16T17:58:52;15.90;89.80
20081;DHT22;10200;49.232;9.222;2022-09-16T18:01:20;15.90;89.60
20081;DHT22;10200;49.232;9.222;2022-09-16T18:03:48;15.80;90.00
20081;DHT22;10200;49.232;9.222;2022-09-16T18:08:43;15.60;90.10
20081;DHT22;10200;49.232;9.222;2022-09-16T18:11:10;15.60;90.20
20081;DHT22;10200;49.232;9.222;2022-09-16T18:13:36;15.60;90.10
20081;DHT22;10200;49.232;9.222;2022-09-16T18:16:08;15.60;90.00
20081;DHT22;10200;49.232;9.222;2022-09-16T18:18:35;15.50;90.10
20081;DHT22;10200;49.232;9.222;2022-09-16T18:21:02;15.50;90.30
20081;DHT22;10200;49.232;9.222;2022-09-16T18:23:28;15.50;90.40
20081;DHT22;10200;49.232;9.222;2022-09-16T18:25:54;15.40;90.50
20081;DHT22;10200;49.232;9.222;2022-09-16T18:28:20;15.40;90.60
20081;DHT22;10200;49.232;9.222;2022-09-16T18:30:46;15.30;90.30
20081;DHT22;10200;49.232;9.222;2022-09-16T18:33:12;15.30;91.00
20081;DHT22;10200;49.232;9.222;2022-09-16T18:35:37;15.30;90.80
20081;DHT22;10200;49.232;9.222;2022-09-16T18:38:09;15.30;90.90
20081;DHT22;10200;49.232;9.222;2022-09-16T18:40:35;15.20;90.80
20081;DHT22;10200;49.232;9.222;2022-09-16T18:43:01;15.20;91.10
20081;DHT22;10200;49.232;9.222;2022-09-16T18:45:27;15.10;91.20
20081;DHT22;10200;49.232;9.222;2022-09-16T18:47:55;15.10;91.20
20081;DHT22;10200;49.232;9.222;2022-09-16T18:50:21;15.10;91.70
20081;DHT22;10200;49.232;9.222;2022-09-16T18:52:46;15.00;91.40
20081;DHT22;10200;49.232;9.222;2022-09-16T18:55:12;15.00;92.20
20081;DHT22;10200;49.232;9.222;2022-09-16T18:57:39;15.10;92.40
20081;DHT22;10200;49.232;9.222;2022-09-16T19:00:05;15.00;92.30
20081;DHT22;10200;49.232;9.222;2022-09-16T19:02:30;15.10;92.70